createdAt,value
2023-05-12T00:02:02.432Z,22.10
2023-05-12T00:04:31.159Z,22.23
2023-05-12T00:06:59.744Z,22.04
2023-05-12T00:09:28.531Z,22.53
2023-05-12T00:11:56.803Z,22.59
2023-05-12T00:14:25.403Z,22.39
2023-05-12T00:16:53.665Z,22.47
2023-05-12T00:19:23.801Z,22.41
2023-05-12T00:21:52.053Z,22.55
2023-05-12T00:24:20.803Z,22.63
2023-05-12T00:26:49.637Z,22.58
2023-05-12T00:29:21.663Z,22.36
2023-05-12T00:31:51.015Z,22.69
2023-05-12T00:34:19.619Z,23.24
2023-05-12T00:36:49.318Z,23.26
2023-05-12T00:39:18.012Z,23.90
2023-05-12T00:41:47.886Z,23.79
2023-05-12T00:44:18.707Z,23.80
2023-05-12T00:46:47.070Z,23.42
2023-05-12T00:49:15.834Z,23.63
2023-05-12T00:51:44.378Z,23.59
2023-05-12T00:54:14.381Z,23.41
2023-05-12T00:56:43.425Z,23.70
2023-05-12T00:59:12.219Z,23.55
2023-05-12T01:01:40.541Z,23.98
2023-05-12T01:04:09.224Z,23.75
2023-05-12T01:06:40.421Z,23.65
2023-05-12T01:09:09.385Z,23.93
2023-05-12T01:11:39.106Z,23.55
2023-05-12T01:14:07.789Z,23.90
2023-05-12T01:16:37.910Z,24.13
2023-05-12T01:19:08.309Z,23.80
2023-05-12T01:21:37.208Z,24.06
2023-05-12T01:24:08.933Z,23.82
2023-05-12T01:26:38.405Z,22.90
2023-05-12T01:29:07.710Z,23.96
2023-05-12T01:31:36.188Z,24.13
2023-05-12T01:34:04.944Z,23.86
2023-05-12T01:36:34.278Z,24.13
2023-05-12T01:39:02.862Z,24.48
2023-05-12T01:41:31.206Z,24.49
2023-05-12T01:44:01.651Z,23.97
2023-05-12T01:46:30.028Z,24.76
2023-05-12T01:48:58.696Z,23.96
2023-05-12T01:51:26.844Z,24.41
2023-05-12T01:53:55.526Z,24.50
2023-05-12T01:56:24.015Z,24.30
2023-05-12T01:58:52.469Z,24.65
2023-05-12T02:01:23.504Z,24.19
2023-05-12T02:03:52.292Z,24.89
2023-05-12T02:06:21.502Z,24.64
2023-05-12T02:08:51.051Z,24.44
2023-05-12T02:11:19.484Z,24.88
2023-05-12T02:13:48.176Z,24.64
2023-05-12T02:16:17.155Z,24.96
2023-05-12T02:18:47.213Z,24.84
2023-05-12T02:21:15.640Z,24.95
2023-05-12T02:23:44.133Z,25.21
2023-05-12T02:26:12.443Z,25.07
2023-05-12T02:28:41.645Z,24.98
2023-05-12T02:31:09.976Z,24.98
2023-05-12T02:33:38.621Z,24.93
2023-05-12T02:36:09.528Z,25.27
2023-05-12T02:38:39.956Z,25.52
2023-05-12T02:41:09.263Z,25.30
2023-05-12T02:43:37.704Z,25.51
2023-05-12T02:46:06.506Z,26.13
2023-05-12T02:48:35.128Z,25.68
2023-05-12T02:51:03.514Z,25.49
2023-05-12T02:53:33.824Z,25.54
2023-05-12T02:56:02.556Z,25.52
2023-05-12T02:58:31.218Z,25.81
2023-05-12T03:01:09.420Z,25.48
2023-05-12T03:03:39.733Z,25.68
2023-05-12T03:06:08.889Z,25.98
2023-05-12T03:08:38.725Z,25.95
2023-05-12T03:11:07.296Z,26.25
2023-05-12T03:13:36.019Z,25.90
2023-05-12T03:16:04.607Z,26.37
2023-05-12T03:18:33.325Z,26.37
2023-05-12T03:21:04.732Z,26.06
2023-05-12T03:23:33.310Z,26.13
2023-05-12T03:26:03.154Z,25.54
2023-05-12T03:28:32.723Z,25.95
2023-05-12T03:31:01.366Z,26.15
2023-05-12T03:33:30.413Z,25.67
2023-05-12T03:35:58.880Z,25.30
2023-05-12T03:38:27.605Z,25.26
2023-05-12T03:41:06.364Z,24.46
2023-05-12T03:43:36.974Z,25.15
2023-05-12T03:46:05.540Z,24.92
2023-05-12T03:48:34.199Z,24.36
2023-05-12T03:51:02.486Z,24.48
2023-05-12T03:53:31.722Z,24.45
2023-05-12T03:56:04.886Z,24.66
2023-05-12T03:58:35.300Z,23.97
2023-05-12T04:01:03.734Z,24.67
2023-05-12T04:03:32.657Z,24.23
2023-05-12T04:06:01.930Z,24.08
2023-05-12T04:08:30.854Z,23.62
2023-05-12T04:10:59.811Z,23.40
2023-05-12T04:13:28.979Z,23.19
2023-05-12T04:15:59.713Z,22.59
2023-05-12T04:18:29.232Z,23.05
2023-05-12T04:20:57.781Z,22.64
2023-05-12T04:23:26.940Z,22.18
2023-05-12T04:25:55.312Z,22.00
2023-05-12T04:28:24.260Z,21.47
2023-05-12T04:30:52.689Z,21.17
2023-05-12T04:33:22.821Z,21.19
2023-05-12T04:35:50.967Z,21.45
2023-05-12T04:38:19.580Z,21.14
2023-05-12T04:40:47.741Z,20.70
2023-05-12T04:45:47.431Z,20.17
2023-05-12T04:48:16.285Z,20.31
2023-05-12T04:50:46.207Z,19.61
2023-05-12T04:53:14.844Z,19.68
2023-05-12T04:55:46.097Z,19.28
2023-05-12T04:58:14.597Z,17.68
2023-05-12T05:00:44.211Z,18.47
2023-05-12T05:03:13.051Z,18.92
2023-05-12T05:05:41.412Z,18.10
2023-05-12T05:08:11.876Z,17.44
2023-05-12T05:10:40.160Z,17.81
2023-05-12T05:13:08.923Z,17.09
2023-05-12T05:15:37.354Z,16.76
2023-05-12T05:18:06.562Z,17.10
2023-05-12T05:20:35.603Z,17.26
2023-05-12T05:23:04.296Z,17.46
2023-05-12T05:25:34.179Z,17.33
2023-05-12T05:28:02.980Z,17.63
2023-05-12T05:30:31.276Z,17.33
2023-05-12T05:33:00.059Z,16.75
2023-05-12T05:35:28.414Z,16.04
2023-05-12T05:37:57.011Z,16.02
2023-05-12T05:40:25.555Z,15.94
2023-05-12T05:42:55.612Z,16.03
2023-05-12T05:45:23.954Z,15.65
2023-05-12T05:47:53.397Z,15.92
2023-05-12T05:50:21.996Z,15.39
2023-05-12T05:52:50.766Z,14.54
2023-05-12T05:55:19.463Z,13.60
2023-05-12T05:57:49.081Z,13.36
2023-05-12T06:00:19.369Z,12.55
2023-05-12T06:02:48.760Z,12.18
2023-05-12T06:05:18.363Z,12.53
2023-05-12T06:07:47.177Z,12.09
2023-05-12T06:10:15.604Z,11.91
2023-05-12T06:12:44.416Z,12.08
2023-05-12T06:15:12.944Z,12.05
2023-05-12T06:17:43.247Z,12.12
2023-05-12T06:20:13.533Z,11.87
2023-05-12T06:22:44.598Z,11.85
2023-05-12T06:25:13.021Z,12.45
2023-05-12T06:27:41.622Z,12.34
2023-05-12T06:30:12.996Z,11.79
2023-05-12T06:32:44.371Z,11.11
2023-05-12T06:35:13.507Z,10.83
2023-05-12T06:37:45.042Z,11.25
2023-05-12T06:40:13.211Z,10.61
2023-05-12T06:42:41.820Z,11.50
2023-05-12T06:45:11.510Z,10.23
2023-05-12T06:47:40.955Z,10.27
2023-05-12T06:50:11.398Z,10.18
2023-05-12T06:52:40.324Z,10.16
2023-05-12T06:55:09.787Z,10.05
2023-05-12T06:57:38.567Z,10.46
2023-05-12T07:00:08.361Z,9.86
2023-05-12T07:02:37.386Z,10.20
2023-05-12T07:05:06.672Z,10.02
2023-05-12T07:07:36.873Z,8.98
2023-05-12T07:10:06.713Z,9.28
2023-05-12T07:12:35.364Z,9.04
2023-05-12T07:15:04.619Z,9.48
2023-05-12T07:17:33.538Z,9.23
2023-05-12T07:20:01.873Z,9.42
2023-05-12T07:22:32.483Z,9.41
2023-05-12T07:25:02.580Z,7.86
2023-05-12T07:27:31.037Z,7.70
2023-05-12T07:29:59.338Z,8.17
2023-05-12T07:32:28.167Z,8.42
2023-05-12T07:34:56.649Z,7.71
2023-05-12T07:37:25.474Z,8.02
2023-05-12T07:39:53.786Z,7.49
2023-05-12T07:42:24.350Z,7.30
2023-05-12T07:44:52.568Z,6.86
2023-05-12T07:47:21.089Z,7.09
2023-05-12T07:49:49.448Z,7.20
2023-05-12T07:52:18.013Z,6.78
2023-05-12T07:54:46.211Z,7.51
2023-05-12T07:57:14.820Z,7.76
2023-05-12T07:59:44.848Z,7.43
2023-05-12T08:02:13.532Z,7.68
2023-05-12T08:04:43.858Z,7.60
2023-05-12T08:07:13.869Z,7.63
2023-05-12T08:09:42.489Z,7.40
2023-05-12T08:12:11.392Z,7.83
2023-05-12T08:14:39.807Z,7.83
2023-05-12T08:17:11.019Z,7.14
2023-05-12T08:19:39.208Z,7.17
2023-05-12T08:22:07.706Z,7.34
2023-05-12T08:24:36.161Z,6.75
2023-05-12T08:27:05.080Z,6.67
2023-05-12T08:29:33.221Z,6.08
2023-05-12T08:32:01.731Z,6.36
2023-05-12T08:34:31.797Z,6.37
2023-05-12T08:37:00.465Z,6.52
2023-05-12T08:39:31.079Z,6.27
2023-05-12T08:42:07.228Z,6.37
2023-05-12T08:44:35.646Z,6.57
2023-05-12T08:47:06.011Z,6.40
2023-05-12T08:49:38.863Z,5.60
2023-05-12T08:52:09.743Z,5.72
2023-05-12T08:54:48.701Z,5.42
2023-05-12T08:57:24.603Z,5.87
2023-05-12T08:59:55.850Z,6.37
2023-05-12T09:02:35.012Z,6.43
2023-05-12T09:05:11.859Z,6.50
2023-05-12T09:07:44.977Z,6.65
2023-05-12T09:10:32.318Z,6.59
2023-05-12T09:13:05.626Z,7.36
2023-05-12T09:15:37.947Z,7.76
2023-05-12T09:18:06.931Z,8.24
2023-05-12T09:20:36.834Z,9.08
2023-05-12T09:23:19.773Z,8.52
2023-05-12T09:26:01.331Z,7.96
2023-05-12T09:28:37.256Z,8.74
2023-05-12T09:31:16.684Z,9.05
2023-05-12T09:33:45.285Z,10.21
2023-05-12T09:36:18.360Z,10.06
2023-05-12T09:38:47.046Z,10.42
2023-05-12T09:41:15.238Z,11.66
2023-05-12T09:43:47.292Z,10.88
2023-05-12T09:46:15.857Z,10.30
2023-05-12T09:48:44.726Z,9.95
2023-05-12T09:51:18.465Z,9.54
2023-05-12T09:53:47.044Z,9.52
2023-05-12T09:56:16.340Z,9.56
2023-05-12T09:58:45.964Z,9.90
2023-05-12T10:01:22.776Z,9.22
2023-05-12T10:03:55.006Z,9.42
2023-05-12T10:06:29.652Z,7.57
2023-05-12T10:09:05.804Z,7.25
2023-05-12T10:11:35.247Z,7.79
2023-05-12T10:14:03.947Z,6.64
2023-05-12T10:16:33.227Z,5.58
2023-05-12T10:19:02.001Z,5.43
2023-05-12T10:21:31.834Z,5.23
2023-05-12T10:24:00.674Z,5.03
2023-05-12T10:26:29.710Z,4.68
2023-05-12T10:28:58.737Z,5.68
2023-05-12T10:31:28.215Z,5.11
2023-05-12T10:34:00.196Z,4.92
2023-05-12T10:36:29.194Z,5.41
2023-05-12T10:39:06.812Z,5.59
2023-05-12T10:41:36.531Z,7.30
2023-05-12T10:44:05.194Z,8.46
2023-05-12T10:46:33.607Z,7.89
2023-05-12T10:49:04.532Z,8.26
2023-05-12T10:51:34.582Z,8.71
2023-05-12T10:54:06.038Z,8.06
2023-05-12T10:56:42.135Z,9.06
2023-05-12T10:59:17.631Z,9.49
2023-05-12T11:01:58.900Z,8.43
2023-05-12T11:04:41.082Z,7.86
2023-05-12T11:07:10.571Z,7.95
2023-05-12T11:09:50.728Z,7.48
2023-05-12T11:12:26.771Z,8.76
2023-05-12T11:14:56.809Z,8.57
2023-05-12T11:17:25.658Z,8.74
2023-05-12T11:19:55.579Z,10.02
2023-05-12T11:22:25.207Z,10.88
2023-05-12T11:24:55.401Z,11.34
2023-05-12T11:27:24.403Z,10.94
2023-05-12T11:30:01.064Z,11.19
2023-05-12T11:32:29.996Z,11.72
2023-05-12T11:35:10.843Z,12.52
2023-05-12T11:37:40.350Z,13.07
2023-05-12T11:40:18.198Z,12.47
2023-05-12T11:42:49.257Z,12.48
2023-05-12T11:45:22.871Z,12.00
2023-05-12T11:47:51.546Z,12.33
2023-05-12T11:50:25.918Z,12.02
2023-05-12T11:52:54.763Z,12.15
2023-05-12T11:55:25.685Z,11.67
2023-05-12T11:57:59.355Z,11.78
2023-05-12T12:00:32.387Z,11.84
2023-05-12T12:03:09.008Z,12.21
2023-05-12T12:05:38.857Z,12.98
2023-05-12T12:08:09.076Z,13.30
2023-05-12T12:10:38.986Z,13.46
2023-05-12T12:13:07.521Z,13.32
2023-05-12T12:15:36.125Z,13.60
2023-05-12T12:18:04.493Z,14.07
2023-05-12T12:20:33.368Z,13.75
2023-05-12T12:23:01.755Z,13.75
2023-05-12T12:25:31.404Z,13.38
2023-05-12T12:28:01.121Z,13.67
2023-05-12T12:30:29.882Z,13.25
2023-05-12T12:32:58.320Z,13.83
2023-05-12T12:35:27.026Z,14.10
2023-05-12T12:37:55.662Z,13.59
2023-05-12T12:40:24.251Z,13.76
2023-05-12T12:42:52.673Z,13.58
2023-05-12T12:45:22.798Z,13.21
2023-05-12T12:47:54.967Z,13.23
2023-05-12T12:50:25.248Z,13.51
2023-05-12T12:52:55.316Z,13.00
2023-05-12T12:55:24.301Z,13.71
2023-05-12T12:57:52.816Z,12.86
2023-05-12T13:00:24.484Z,12.31
2023-05-12T13:02:52.911Z,13.06
2023-05-12T13:05:22.001Z,13.15
2023-05-12T13:07:51.542Z,12.88
2023-05-12T13:10:20.269Z,12.84
2023-05-12T13:12:48.862Z,12.81
2023-05-12T13:15:19.406Z,12.75
2023-05-12T13:17:49.685Z,12.57
2023-05-12T13:20:18.360Z,12.79
2023-05-12T13:22:46.928Z,12.81
2023-05-12T13:25:15.809Z,12.79
2023-05-12T13:27:44.288Z,12.54
2023-05-12T13:30:13.897Z,12.84
2023-05-12T13:32:42.746Z,12.56
2023-05-12T13:35:13.706Z,12.21
2023-05-12T13:37:42.053Z,12.48
2023-05-12T13:40:11.644Z,12.91
2023-05-12T13:42:40.170Z,12.67
2023-05-12T13:45:10.532Z,13.37
2023-05-12T13:47:39.425Z,13.43
2023-05-12T13:50:09.239Z,13.49
2023-05-12T13:52:39.381Z,13.64
2023-05-12T13:55:08.400Z,13.82
2023-05-12T13:57:36.701Z,14.19
2023-05-12T14:00:08.633Z,14.15
2023-05-12T14:02:37.660Z,13.59
2023-05-12T14:05:07.754Z,14.14
2023-05-12T14:07:36.070Z,14.02
2023-05-12T14:10:07.257Z,13.83
2023-05-12T14:12:37.111Z,14.23
2023-05-12T14:15:29.101Z,14.09
2023-05-12T14:17:55.495Z,14.77
2023-05-12T14:20:24.681Z,14.68
2023-05-12T14:22:55.652Z,14.26
2023-05-12T14:25:25.518Z,13.04
2023-05-12T14:27:53.883Z,14.26
2023-05-12T14:30:22.891Z,14.24
2023-05-12T14:32:53.320Z,14.31
2023-05-12T14:35:22.434Z,14.41
2023-05-12T14:37:51.123Z,15.22
2023-05-12T14:40:19.685Z,14.22
2023-05-12T14:42:49.561Z,14.36
2023-05-12T14:45:18.370Z,13.93
2023-05-12T14:47:47.265Z,14.86
2023-05-12T14:50:15.978Z,15.14
2023-05-12T14:52:44.639Z,14.43
2023-05-12T14:55:13.937Z,14.50
2023-05-12T14:57:43.278Z,14.70
2023-05-12T15:00:16.125Z,14.43
2023-05-12T15:02:45.655Z,14.08
2023-05-12T15:05:15.336Z,13.39
2023-05-12T15:07:43.923Z,14.20
2023-05-12T15:10:13.025Z,13.99
2023-05-12T15:12:41.374Z,14.34
2023-05-12T15:15:12.060Z,15.15
2023-05-12T15:17:41.763Z,14.47
2023-05-12T15:20:11.126Z,14.38
2023-05-12T15:22:39.409Z,14.17
2023-05-12T15:25:09.702Z,14.13
2023-05-12T15:27:38.343Z,14.52
2023-05-12T15:30:08.366Z,14.43
2023-05-12T15:32:36.897Z,14.04
2023-05-12T15:35:07.661Z,13.66
2023-05-12T15:37:36.119Z,13.98
2023-05-12T15:40:05.562Z,14.43
2023-05-12T15:42:33.891Z,14.04
2023-05-12T15:45:02.660Z,14.46
2023-05-12T15:47:31.178Z,13.97
2023-05-12T15:50:00.013Z,14.49
2023-05-12T15:52:30.130Z,13.50
2023-05-12T15:54:58.855Z,14.28
2023-05-12T15:57:27.327Z,13.89
2023-05-12T15:59:59.902Z,14.14
2023-05-12T16:02:29.697Z,13.56
2023-05-12T16:04:58.403Z,13.85
2023-05-12T16:07:29.453Z,13.42
2023-05-12T16:09:59.963Z,13.28
2023-05-12T16:12:28.225Z,13.86
2023-05-12T16:14:56.756Z,14.18
2023-05-12T16:17:25.095Z,13.80
2023-05-12T16:19:56.326Z,14.20
2023-05-12T16:22:25.329Z,14.25
2023-05-12T16:24:55.755Z,14.06
2023-05-12T16:27:25.886Z,13.94
2023-05-12T16:29:54.657Z,13.63
2023-05-12T16:32:23.612Z,13.41
2023-05-12T16:34:52.228Z,13.87
2023-05-12T16:37:20.521Z,14.24
2023-05-12T16:39:49.045Z,14.14
2023-05-12T16:42:17.227Z,14.39
2023-05-12T16:44:47.420Z,14.40
2023-05-12T16:47:15.819Z,14.25
2023-05-12T16:49:44.412Z,14.16
2023-05-12T16:52:12.759Z,14.69
2023-05-12T16:54:42.291Z,14.50
2023-05-12T16:57:10.706Z,15.00
2023-05-12T16:59:39.820Z,14.38
2023-05-12T17:02:09.839Z,14.17
2023-05-12T17:04:38.781Z,14.99
2023-05-12T17:07:07.524Z,15.22
2023-05-12T17:09:36.490Z,14.68
2023-05-12T17:12:06.952Z,14.65
2023-05-12T17:14:35.819Z,14.82
2023-05-12T17:17:04.637Z,14.42
2023-05-12T17:19:34.883Z,14.31
2023-05-12T17:22:03.798Z,14.29
2023-05-12T17:24:32.606Z,15.13
2023-05-12T17:27:01.355Z,15.23
2023-05-12T17:29:29.958Z,15.23
2023-05-12T17:32:00.177Z,15.09
2023-05-12T17:34:28.941Z,15.45
2023-05-12T17:36:59.365Z,15.84
2023-05-12T17:39:27.924Z,16.16
2023-05-12T17:41:56.224Z,15.79
2023-05-12T17:44:24.805Z,15.64
2023-05-12T17:46:53.151Z,15.71
2023-05-12T17:49:21.816Z,16.10
2023-05-12T17:51:50.686Z,15.94
2023-05-12T17:54:20.700Z,15.90
2023-05-12T17:56:49.096Z,16.45
2023-05-12T17:59:17.800Z,16.36
2023-05-12T18:01:46.142Z,16.68
2023-05-12T18:04:14.748Z,16.47
2023-05-12T18:06:43.960Z,16.60
2023-05-12T18:09:13.747Z,16.32
2023-05-12T18:11:43.955Z,16.79
2023-05-12T18:14:12.513Z,16.33
2023-05-12T18:16:41.091Z,17.02
2023-05-12T18:19:09.911Z,16.95
2023-05-12T18:21:38.325Z,16.78
2023-05-12T18:24:07.552Z,17.10
2023-05-12T18:26:35.883Z,17.18
2023-05-12T18:29:06.092Z,16.74
2023-05-12T18:31:36.247Z,16.96
2023-05-12T18:34:04.818Z,16.86
2023-05-12T18:36:33.399Z,17.01
2023-05-12T18:39:02.020Z,16.73
2023-05-12T18:41:30.423Z,16.68
2023-05-12T18:43:58.984Z,16.84
2023-05-12T18:46:28.675Z,16.52
2023-05-12T18:48:57.329Z,16.83
2023-05-12T18:51:25.658Z,16.90
2023-05-12T18:53:54.247Z,16.51
2023-05-12T18:56:22.711Z,16.72
2023-05-12T18:58:51.308Z,16.91
2023-05-12T19:01:19.972Z,16.63
2023-05-12T19:03:49.860Z,16.33
2023-05-12T19:06:18.274Z,16.94
2023-05-12T19:08:47.153Z,17.06
2023-05-12T19:11:15.395Z,16.94
2023-05-12T19:13:45.630Z,17.44
2023-05-12T19:16:14.035Z,17.63
2023-05-12T19:18:42.741Z,17.21
2023-05-12T19:21:12.663Z,17.23
2023-05-12T19:23:41.260Z,16.95
2023-05-12T19:26:10.953Z,17.37
2023-05-12T19:28:39.499Z,17.21
2023-05-12T19:31:07.816Z,17.47
2023-05-12T19:33:36.306Z,16.98
2023-05-12T19:36:04.622Z,17.21
2023-05-12T19:38:35.071Z,17.38
2023-05-12T19:41:03.249Z,17.67
2023-05-12T19:43:32.032Z,17.21
2023-05-12T19:46:00.522Z,17.07
2023-05-12T19:48:29.206Z,17.48
2023-05-12T19:50:57.635Z,17.73
2023-05-12T19:53:26.882Z,17.09
2023-05-12T19:55:57.423Z,17.44
2023-05-12T19:58:26.525Z,17.46
2023-05-12T20:00:55.868Z,18.06
2023-05-12T20:03:24.726Z,17.58
2023-05-12T20:05:53.210Z,17.77
2023-05-12T20:08:22.219Z,17.94
2023-05-12T20:10:50.602Z,18.32
2023-05-12T20:13:20.579Z,17.70
2023-05-12T20:15:48.812Z,17.90
2023-05-12T20:18:17.568Z,18.12
2023-05-12T20:20:46.023Z,17.84
2023-05-12T20:23:14.588Z,18.22
2023-05-12T20:25:43.398Z,18.29
2023-05-12T20:28:11.991Z,17.83
2023-05-12T20:30:41.950Z,18.10
2023-05-12T20:33:10.453Z,18.44
2023-05-12T20:35:39.049Z,18.35
2023-05-12T20:38:07.752Z,18.58
2023-05-12T20:40:36.171Z,18.06
2023-05-12T20:43:04.761Z,18.29
2023-05-12T20:45:33.370Z,18.18
2023-05-12T20:48:04.845Z,18.14
2023-05-12T20:50:33.113Z,18.23
2023-05-12T20:53:02.003Z,18.58
2023-05-12T20:55:30.306Z,18.31
2023-05-12T20:57:59.047Z,18.23
2023-05-12T21:00:27.246Z,18.40
2023-05-12T21:02:56.218Z,18.27
2023-05-12T21:05:25.936Z,18.23
2023-05-12T21:07:54.677Z,18.06
2023-05-12T21:10:23.350Z,18.35
2023-05-12T21:12:52.317Z,18.42
2023-05-12T21:15:20.708Z,18.65
2023-05-12T21:17:49.782Z,18.15
2023-05-12T21:20:18.199Z,18.91
2023-05-12T21:22:48.433Z,18.46
2023-05-12T21:25:16.728Z,18.25
2023-05-12T21:27:47.496Z,18.42
2023-05-12T21:30:16.273Z,18.30
2023-05-12T21:32:44.905Z,18.21
2023-05-12T21:35:13.626Z,18.53
2023-05-12T21:37:42.264Z,18.64
2023-05-12T21:40:13.262Z,18.75
2023-05-12T21:42:41.871Z,18.55
2023-05-12T21:45:11.104Z,18.62
2023-05-12T21:47:39.967Z,18.12
2023-05-12T21:50:08.530Z,18.49
2023-05-12T21:52:37.400Z,18.77
2023-05-12T21:55:06.447Z,18.58
2023-05-12T21:57:39.806Z,18.56
2023-05-12T22:00:10.255Z,18.85
2023-05-12T22:02:38.716Z,18.72
2023-05-12T22:05:08.725Z,19.09
2023-05-12T22:07:37.324Z,18.91
2023-05-12T22:10:06.184Z,18.90
2023-05-12T22:12:36.907Z,18.65
2023-05-12T22:15:05.969Z,18.45
2023-05-12T22:17:34.862Z,18.67
2023-05-12T22:20:04.248Z,18.42
2023-05-12T22:22:33.042Z,18.25
2023-05-12T22:25:01.301Z,18.74
2023-05-12T22:27:29.964Z,18.76
2023-05-12T22:29:59.930Z,18.73
2023-05-12T22:32:28.499Z,18.93
2023-05-12T22:34:56.847Z,18.74
2023-05-12T22:37:25.873Z,18.71
2023-05-12T22:39:54.788Z,18.32
2023-05-12T22:42:23.706Z,18.41
2023-05-12T22:44:52.009Z,18.47
2023-05-12T22:47:22.151Z,18.09
2023-05-12T22:49:50.632Z,18.20
2023-05-12T22:52:19.126Z,18.29
2023-05-12T22:54:47.458Z,18.44
2023-05-12T22:57:15.931Z,18.36
2023-05-12T22:59:44.393Z,18.32
2023-05-12T23:02:12.863Z,18.90
2023-05-12T23:04:42.562Z,18.53
2023-05-12T23:10:03.191Z,18.57
2023-05-12T23:12:36.453Z,18.47
2023-05-12T23:15:06.054Z,18.90
2023-05-12T23:17:34.675Z,18.78
2023-05-12T23:20:04.814Z,18.87
2023-05-12T23:22:33.430Z,19.11
2023-05-12T23:25:02.201Z,19.08
2023-05-12T23:27:30.630Z,19.16
2023-05-12T23:29:59.210Z,19.65
2023-05-12T23:32:27.896Z,19.78
2023-05-12T23:34:56.473Z,19.80
2023-05-12T23:37:26.990Z,19.90
2023-05-12T23:39:55.247Z,19.96
2023-05-12T23:42:23.929Z,20.21
2023-05-12T23:44:52.101Z,20.47
2023-05-12T23:47:20.818Z,20.40
2023-05-12T23:49:49.054Z,20.58
2023-05-12T23:52:21.002Z,20.72
2023-05-12T23:54:50.859Z,20.76
2023-05-12T23:57:19.425Z,20.87
2023-05-12T23:59:48.242Z,20.50
